Time;durP1;ratioP1;P1;durP2;ratioP2;P2;SDS_P1;SDS_P2;PMS_P1;PMS_P2;Temp;Humidity;BMP_temperature;BMP_pressure;BME280_temperature;BME280_humidity;BME280_pressure;Samples;Min_cycle;Max_cycle;Signal;HPM_P1;HPM_P2
2022/08/06 00:00:18;;;;;;;;;;;;;;;22.19;55.59;102255.81;1028167;28;679;-71
2022/08/06 00:01:09;;;;;;;;;;;;;;;22.19;55.87;102263.97;1024877;29;651;-71
2022/08/06 00:01:59;;;;;;;;;;;;;;;22.20;56.01;102253.97;1026773;28;698;-72
2022/08/06 00:02:49;;;;;;;;;;;;;;;22.18;56.04;102259.53;1026654;28;691;-71
2022/08/06 00:03:40;;;;;;;;;;;;;;;22.18;55.67;102256.81;1026812;28;650;-71
2022/08/06 00:04:30;;;;;;;;;;;;;;;22.18;55.83;102251.38;1026765;28;607;-71
2022/08/06 00:05:21;;;;;;;;;;;;;;;22.21;55.78;102252.97;1026689;28;702;-72
2022/08/06 00:06:11;;;;;;;;;;;;;;;22.17;56.00;102252.38;1026763;28;626;-71
2022/08/06 00:07:02;;;;;;;;;;;;;;;22.15;56.15;102252.53;1026670;28;670;-71
2022/08/06 00:07:52;;;;;;;;;;;;;;;22.16;55.99;102250.66;1026837;28;689;-71
2022/08/06 00:08:42;;;;;;;;;;;;;;;22.16;55.90;102250.66;1025406;29;654;-71
2022/08/06 00:09:33;;;;;;;;;;;;;;;22.16;55.62;102251.53;1026615;28;689;-71
2022/08/06 00:10:23;;;;;;;;;;;;;;;22.15;56.03;102257.94;1026653;28;634;-71
2022/08/06 00:11:14;;;;;;;;;;;;;;;22.17;55.99;102255.09;1025378;29;702;-71
2022/08/06 00:12:04;;;;;;;;;;;;;;;22.17;56.00;102261.38;1026454;28;627;-72
2022/08/06 00:12:55;;;;;;;;;;;;;;;22.19;55.95;102260.38;1026693;28;642;-71
2022/08/06 00:13:45;;;;;;;;;;;;;;;22.14;55.70;102253.50;1025724;28;721;-71
2022/08/06 00:14:35;;;;;;;;;;;;;;;22.21;55.74;102258.41;1026551;28;1959;-71
2022/08/06 00:15:26;;;;;;;;;;;;;;;22.20;55.59;102264.81;1026520;28;694;-71
2022/08/06 00:16:16;;;;;;;;;;;;;;;22.20;55.74;102262.97;1025023;29;615;-71
2022/08/06 00:17:07;;;;;;;;;;;;;;;22.17;55.64;102264.09;1026583;28;666;-71
2022/08/06 00:17:57;;;;;;;;;;;;;;;22.17;56.08;102265.97;1026721;28;631;-71
2022/08/06 00:18:48;;;;;;;;;;;;;;;22.13;56.00;102259.94;1026524;28;721;-71
2022/08/06 00:19:38;;;;;;;;;;;;;;;22.14;55.96;102264.38;1026721;28;630;-71
2022/08/06 00:20:29;;;;;;;;;;;;;;;22.12;56.12;102265.50;1029342;28;1478;-71
2022/08/06 00:21:19;;;;;;;;;;;;;;;22.15;55.71;102270.66;1033601;28;675;-71
2022/08/06 00:22:09;;;;;;;;;;;;;;;22.12;56.08;102273.66;1033797;28;778;-71
2022/08/06 00:23:00;;;;;;;;;;;;;;;22.08;56.16;102272.22;1033262;28;754;-71
2022/08/06 00:23:50;;;;;;;;;;;;;;;22.13;56.04;102269.94;1033110;28;637;-71
2022/08/06 00:24:41;;;;;;;;;;;;;;;22.14;55.57;102266.22;1034080;28;702;-71
2022/08/06 00:25:31;;;;;;;;;;;;;;;22.13;55.83;102272.66;1033596;28;714;-71
2022/08/06 00:26:24;;;;;;;;;;;;;;;22.14;55.89;102269.81;1034174;28;693;-71
2022/08/06 00:27:14;;;;;;;;;;;;;;;22.13;55.73;102269.94;1034168;28;630;-71
2022/08/06 00:28:04;;;;;;;;;;;;;;;22.13;55.80;102269.94;1033568;28;630;-71
2022/08/06 00:28:55;;;;;;;;;;;;;;;22.12;55.91;102268.22;1034063;28;662;-72
2022/08/06 00:29:45;;;;;;;;;;;;;;;22.13;55.83;102273.53;1033782;28;630;-71
2022/08/06 00:30:36;;;;;;;;;;;;;;;22.13;56.11;102276.25;1033251;28;787;-71
2022/08/06 00:31:26;;;;;;;;;;;;;;;22.15;55.83;102273.38;1029216;28;710;-71
2022/08/06 00:32:17;;;;;;;;;;;;;;;22.12;55.93;102268.22;1029223;28;706;-71
2022/08/06 00:33:07;;;;;;;;;;;;;;;22.10;56.07;102271.09;1030388;28;678;-71
2022/08/06 00:34:00;;;;;;;;;;;;;;;22.11;55.91;102272.81;1030692;28;681;-71
2022/08/06 00:34:50;;;;;;;;;;;;;;;22.12;56.13;102269.09;1030097;28;639;-71
2022/08/06 00:35:41;;;;;;;;;;;;;;;22.14;55.85;102279.81;1030751;28;627;-71
2022/08/06 00:36:31;;;;;;;;;;;;;;;22.12;55.95;102273.66;1030716;28;689;-71
2022/08/06 00:37:22;;;;;;;;;;;;;;;22.11;56.02;102275.50;1030546;28;642;-71
2022/08/06 00:38:12;;;;;;;;;;;;;;;22.12;55.98;102279.09;1028321;28;653;-71
2022/08/06 00:39:03;;;;;;;;;;;;;;;22.15;55.92;102278.81;1030598;28;846;-71
2022/08/06 00:39:53;;;;;;;;;;;;;;;22.12;55.59;102273.66;1028902;28;670;-71
2022/08/06 00:40:43;;;;;;;;;;;;;;;22.12;55.89;102274.53;1026670;28;610;-71
2022/08/06 00:41:34;;;;;;;;;;;;;;;22.10;55.75;102281.94;1026506;28;706;-71
2022/08/06 00:42:24;;;;;;;;;;;;;;;22.08;55.85;102288.50;1028471;28;1523;-72
2022/08/06 00:43:15;;;;;;;;;;;;;;;22.09;56.12;102282.06;1028430;28;602;-71
2022/08/06 00:44:05;;;;;;;;;;;;;;;22.10;55.71;102283.78;1028730;28;1127;-71
2022/08/06 00:44:55;;;;;;;;;;;;;;;22.10;55.91;102281.09;1028873;28;627;-71
2022/08/06 00:45:46;;;;;;;;;;;;;;;22.04;55.90;102284.34;1028907;28;706;-71
2022/08/06 00:46:36;;;;;;;;;;;;;;;22.07;56.20;102281.34;1028405;28;622;-71
2022/08/06 00:47:27;;;;;;;;;;;;;;;22.10;55.79;102286.50;1028519;28;721;-71
2022/08/06 00:48:17;;;;;;;;;;;;;;;22.12;56.09;102289.94;1028234;28;763;-72
2022/08/06 00:49:08;;;;;;;;;;;;;;;22.09;55.82;102284.78;1028444;28;729;-71
2022/08/06 00:49:58;;;;;;;;;;;;;;;22.09;55.69;102295.66;1028236;28;627;-72
2022/08/06 00:50:49;;;;;;;;;;;;;;;22.09;55.96;102290.22;1028432;28;721;-71
2022/08/06 00:51:39;;;;;;;;;;;;;;;22.07;55.77;102295.78;1028255;28;699;-71
2022/08/06 00:52:30;;;;;;;;;;;;;;;22.06;55.88;102285.94;1028985;28;705;-70
2022/08/06 00:53:20;;;;;;;;;;;;;;;22.11;56.17;102290.94;1028184;28;678;-71
2022/08/06 00:54:10;;;;;;;;;;;;;;;22.10;55.88;102292.81;1028868;28;689;-70
2022/08/06 00:55:01;;;;;;;;;;;;;;;22.09;55.85;102292.94;1028991;28;665;-70
2022/08/06 00:55:51;;;;;;;;;;;;;;;22.09;56.14;102291.09;1028250;28;710;-69
2022/08/06 00:56:42;;;;;;;;;;;;;;;22.08;56.00;102297.50;1028423;28;701;-70
2022/08/06 00:57:32;;;;;;;;;;;;;;;22.10;56.24;102298.22;1029045;28;741;-70
2022/08/06 00:58:22;;;;;;;;;;;;;;;22.12;55.66;102295.38;1028264;28;706;-70
2022/08/06 00:59:13;;;;;;;;;;;;;;;22.09;56.00;102301.94;1024917;29;744;-70
2022/08/06 01:00:03;;;;;;;;;;;;;;;22.10;56.03;102303.66;1026559;28;630;-70
2022/08/06 01:00:54;;;;;;;;;;;;;;;22.09;55.89;102301.94;1026513;28;709;-70
2022/08/06 01:01:44;;;;;;;;;;;;;;;22.09;56.07;102301.94;1026584;28;693;-70
2022/08/06 01:02:35;;;;;;;;;;;;;;;22.08;55.89;102300.22;1025572;28;610;-70
2022/08/06 01:03:25;;;;;;;;;;;;;;;22.08;56.12;102304.78;1024640;29;714;-70
2022/08/06 01:04:16;;;;;;;;;;;;;;;22.05;56.08;102305.06;1026570;28;686;-70
2022/08/06 01:05:06;;;;;;;;;;;;;;;22.07;55.89;102303.06;1026562;28;649;-70
2022/08/06 01:05:57;;;;;;;;;;;;;;;22.00;56.17;102300.06;1026519;28;666;-70
2022/08/06 01:06:47;;;;;;;;;;;;;;;22.01;56.19;102304.50;1026602;28;650;-70
2022/08/06 01:07:38;;;;;;;;;;;;;;;22.02;55.90;102297.22;1026508;28;626;-70
2022/08/06 01:08:28;;;;;;;;;;;;;;;22.04;56.11;102301.50;1026541;28;694;-71
2022/08/06 01:09:18;;;;;;;;;;;;;;;22.06;55.78;102306.78;1026549;28;693;-70
2022/08/06 01:10:09;;;;;;;;;;;;;;;22.06;55.88;102301.34;1026435;28;722;-70
2022/08/06 01:10:59;;;;;;;;;;;;;;;22.04;56.00;102297.91;1025332;29;650;-70
2022/08/06 01:11:50;;;;;;;;;;;;;;;22.00;56.27;102308.22;1026083;28;906;-70
2022/08/06 01:12:40;;;;;;;;;;;;;;;22.03;56.17;102296.22;1026614;28;686;-70
2022/08/06 01:13:30;;;;;;;;;;;;;;;22.03;55.98;102309.81;1026434;28;647;-70
2022/08/06 01:14:21;;;;;;;;;;;;;;;22.02;56.17;102306.22;1026255;28;1955;-70
2022/08/06 01:15:11;;;;;;;;;;;;;;;22.02;56.03;102310.81;1026399;28;663;-71
2022/08/06 01:16:02;;;;;;;;;;;;;;;21.99;56.29;102311.03;1026419;28;679;-71
2022/08/06 01:16:52;;;;;;;;;;;;;;;22.00;56.12;102310.94;1026461;28;785;-71
2022/08/06 01:17:43;;;;;;;;;;;;;;;21.99;56.11;102311.03;1025072;29;654;-71
2022/08/06 01:18:33;;;;;;;;;;;;;;;22.00;56.44;102310.94;1025557;28;653;-71
2022/08/06 01:19:23;;;;;;;;;;;;;;;22.01;56.31;102315.38;1025890;28;682;-71
2022/08/06 01:20:14;;;;;;;;;;;;;;;22.01;56.19;102309.94;1025366;29;658;-71
2022/08/06 01:21:04;;;;;;;;;;;;;;;22.01;55.99;102309.09;1026455;28;615;-71
2022/08/06 01:21:55;;;;;;;;;;;;;;;21.99;56.38;102311.91;1026377;28;749;-70
2022/08/06 01:22:45;;;;;;;;;;;;;;;21.99;56.41;102305.63;1026547;28;654;-70
2022/08/06 01:23:35;;;;;;;;;;;;;;;22.00;56.00;102304.66;1026411;28;690;-70
2022/08/06 01:24:28;;;;;;;;;;;;;;;22.00;56.24;102310.06;1025321;29;741;-70
2022/08/06 01:25:19;;;;;;;;;;;;;;;21.97;56.36;102315.75;1025848;28;658;-70
2022/08/06 01:26:09;;;;;;;;;;;;;;;21.98;56.13;102307.47;1024721;29;945;-71
2022/08/06 01:27:00;;;;;;;;;;;;;;;21.96;56.27;102312.16;1025343;29;714;-71
2022/08/06 01:27:50;;;;;;;;;;;;;;;21.96;56.31;102316.75;1024920;29;848;-71
2022/08/06 01:28:40;;;;;;;;;;;;;;;21.95;56.32;102317.72;1026453;28;694;-71
2022/08/06 01:29:31;;;;;;;;;;;;;;;21.95;56.24;102307.72;1026276;28;818;-70
2022/08/06 01:30:21;;;;;;;;;;;;;;;21.95;56.35;102315.88;1025037;28;1405;-70
2022/08/06 01:31:12;;;;;;;;;;;;;;;21.95;56.17;102315.03;1025369;29;721;-71
2022/08/06 01:32:02;;;;;;;;;;;;;;;21.94;56.11;102313.31;1026526;28;630;-71
2022/08/06 01:32:53;;;;;;;;;;;;;;;21.94;56.62;102319.59;1028247;28;705;-72
2022/08/06 01:33:44;;;;;;;;;;;;;;;21.96;56.42;102308.59;1028737;28;686;-71
2022/08/06 01:34:34;;;;;;;;;;;;;;;21.99;56.14;102313.75;1028626;28;1886;-71
2022/08/06 01:35:26;;;;;;;;;;;;;;;21.97;56.38;102318.47;1028251;28;612;-72
2022/08/06 01:36:16;;;;;;;;;;;;;;;21.98;56.40;102325.59;1028742;28;631;-71
2022/08/06 01:37:07;;;;;;;;;;;;;;;21.95;56.21;102324.03;1028197;28;704;-71
2022/08/06 01:37:57;;;;;;;;;;;;;;;21.98;56.22;102320.19;1028625;28;690;-71
2022/08/06 01:38:48;;;;;;;;;;;;;;;21.97;55.95;102323.88;1028857;28;702;-71
2022/08/06 01:39:38;;;;;;;;;;;;;;;21.97;56.41;102323.88;1028644;28;694;-71
2022/08/06 01:40:29;;;;;;;;;;;;;;;21.93;56.19;102322.44;1028223;28;750;-71
2022/08/06 01:42:28;;;;;;;;;;;;;;;22.00;56.47;102320.94;1028697;28;660;-71
2022/08/06 01:43:19;;;;;;;;;;;;;;;21.99;56.25;102321.91;1028134;28;749;-71
2022/08/06 01:44:09;;;;;;;;;;;;;;;21.98;56.25;102312.03;1028024;28;1117;-71
2022/08/06 01:45:01;;;;;;;;;;;;;;;21.98;56.58;102331.03;1028085;28;650;-71
2022/08/06 01:45:51;;;;;;;;;;;;;;;22.00;56.48;102323.66;1028768;28;658;-71
2022/08/06 01:46:42;;;;;;;;;;;;;;;21.98;56.44;102310.19;1028504;28;757;-71
2022/08/06 01:47:32;;;;;;;;;;;;;;;21.97;56.48;102323.88;1027127;28;769;-71
2022/08/06 01:48:23;;;;;;;;;;;;;;;21.96;56.25;102311.31;1028014;28;694;-71
2022/08/06 01:49:13;;;;;;;;;;;;;;;21.96;56.44;102316.75;1028274;28;689;-71
2022/08/06 01:50:03;;;;;;;;;;;;;;;21.96;56.42;102316.75;1028145;28;702;-71
2022/08/06 01:50:54;;;;;;;;;;;;;;;21.97;56.45;102321.16;1028170;28;619;-71
2022/08/06 01:51:44;;;;;;;;;;;;;;;21.96;56.35;102319.44;1027994;28;702;-71
2022/08/06 01:52:35;;;;;;;;;;;;;;;21.98;56.28;102318.31;1028406;28;830;-71
2022/08/06 01:53:25;;;;;;;;;;;;;;;21.97;56.36;102318.47;1027136;28;675;-71
2022/08/06 01:54:16;;;;;;;;;;;;;;;21.97;56.22;102313.03;1028060;28;1906;-71
2022/08/06 01:55:06;;;;;;;;;;;;;;;21.98;56.36;102322.91;1028691;28;670;-71
2022/08/06 01:55:56;;;;;;;;;;;;;;;21.94;56.28;102319.59;1028592;28;690;-71
2022/08/06 01:56:47;;;;;;;;;;;;;;;21.94;56.42;102316.00;1028165;28;694;-71
2022/08/06 01:57:37;;;;;;;;;;;;;;;21.95;56.34;102323.16;1028200;28;627;-71
2022/08/06 01:58:28;;;;;;;;;;;;;;;21.94;56.28;102321.44;1027976;28;1422;-71
2022/08/06 01:59:18;;;;;;;;;;;;;;;21.91;56.54;102324.44;1025211;29;635;-71
2022/08/06 02:00:08;;;;;;;;;;;;;;;21.92;56.56;102327.00;1029126;28;1484;-71
2022/08/06 02:00:59;;;;;;;;;;;;;;;21.93;56.42;102320.59;1029076;28;654;-71
2022/08/06 02:01:49;;;;;;;;;;;;;;;21.91;56.34;102327.13;1029182;28;640;-70
2022/08/06 02:02:40;;;;;;;;;;;;;;;21.92;56.21;102326.16;1029594;28;721;-71
2022/08/06 02:03:30;;;;;;;;;;;;;;;21.94;56.35;102329.59;1029117;28;706;-71
2022/08/06 02:04:21;;;;;;;;;;;;;;;21.90;56.34;102328.13;1029307;28;790;-71
2022/08/06 02:05:11;;;;;;;;;;;;;;;21.91;56.34;102329.84;1032880;28;733;-71
2022/08/06 02:06:02;;;;;;;;;;;;;;;21.89;56.25;102327.28;1032996;28;615;-71
2022/08/06 02:06:52;;;;;;;;;;;;;;;21.89;56.19;102329.13;1028560;28;717;-71
2022/08/06 02:07:43;;;;;;;;;;;;;;;21.89;56.32;102326.41;1029178;28;611;-71
2022/08/06 02:08:33;;;;;;;;;;;;;;;21.90;56.39;102325.41;1029166;28;675;-71
2022/08/06 02:09:23;;;;;;;;;;;;;;;21.90;56.45;102331.72;1032280;28;682;-71
2022/08/06 02:10:14;;;;;;;;;;;;;;;21.90;56.40;102325.41;1033424;28;673;-71
2022/08/06 02:11:04;;;;;;;;;;;;;;;21.91;56.39;102324.44;1029813;28;622;-71
2022/08/06 02:11:55;;;;;;;;;;;;;;;21.88;56.32;102325.56;1029154;28;690;-71
2022/08/06 02:12:45;;;;;;;;;;;;;;;21.86;56.35;102330.25;1032380;28;674;-71
2022/08/06 02:13:36;;;;;;;;;;;;;;;21.86;56.62;102329.41;1033359;28;674;-71
2022/08/06 02:14:26;;;;;;;;;;;;;;;21.87;56.48;102325.69;1029671;28;1950;-71
2022/08/06 02:15:16;;;;;;;;;;;;;;;21.87;56.31;102328.41;1028459;28;718;-71
2022/08/06 02:16:07;;;;;;;;;;;;;;;21.87;56.59;102328.41;1029156;28;724;-71
2022/08/06 02:16:57;;;;;;;;;;;;;;;21.87;56.30;102329.25;1029091;28;678;-71
2022/08/06 02:17:48;;;;;;;;;;;;;;;21.88;56.17;102335.56;1029154;28;719;-71
2022/08/06 02:18:38;;;;;;;;;;;;;;;21.87;56.30;102331.97;1029070;28;694;-71
2022/08/06 02:19:29;;;;;;;;;;;;;;;21.85;56.24;102334.00;1029098;28;646;-70
2022/08/06 02:20:19;;;;;;;;;;;;;;;21.86;56.43;102332.09;1029056;28;759;-71
2022/08/06 02:21:10;;;;;;;;;;;;;;;21.89;56.16;102331.84;1029169;28;710;-71
2022/08/06 02:22:00;;;;;;;;;;;;;;;21.88;56.32;102335.56;1028576;28;638;-71
2022/08/06 02:22:51;;;;;;;;;;;;;;;21.87;56.08;102333.84;1029090;28;698;-71
2022/08/06 02:23:41;;;;;;;;;;;;;;;21.87;56.17;102328.41;1029139;28;761;-71
2022/08/06 02:24:31;;;;;;;;;;;;;;;21.88;56.25;102333.69;1028661;28;643;-71
2022/08/06 02:25:22;;;;;;;;;;;;;;;21.88;56.17;102338.25;1032284;28;662;-71
2022/08/06 02:26:12;;;;;;;;;;;;;;;21.89;56.14;102337.28;1033483;28;686;-71
2022/08/06 02:27:03;;;;;;;;;;;;;;;21.86;56.22;102338.41;1029411;28;634;-71
2022/08/06 02:27:53;;;;;;;;;;;;;;;21.84;56.05;102335.00;1029011;28;1364;-71
2022/08/06 02:28:44;;;;;;;;;;;;;;;21.85;56.35;102341.28;1033096;28;659;-71
2022/08/06 02:29:34;;;;;;;;;;;;;;;21.87;55.98;102333.84;1033103;28;623;-71
2022/08/06 02:30:25;;;;;;;;;;;;;;;21.86;56.07;102332.97;1033354;28;694;-71
2022/08/06 02:31:15;;;;;;;;;;;;;;;21.87;56.18;102331.13;1032816;28;709;-71
2022/08/06 02:32:05;;;;;;;;;;;;;;;21.86;56.14;102338.41;1032562;28;631;-71
2022/08/06 02:32:56;;;;;;;;;;;;;;;21.87;56.15;102340.13;1033189;28;1174;-71
2022/08/06 02:33:46;;;;;;;;;;;;;;;21.85;55.97;102334.00;1033070;28;560;-71
2022/08/06 02:34:37;;;;;;;;;;;;;;;21.87;56.42;102331.97;1033029;28;1960;-71
2022/08/06 02:35:27;;;;;;;;;;;;;;;21.86;56.14;102330.25;1032432;28;654;-71
2022/08/06 02:36:18;;;;;;;;;;;;;;;21.85;56.27;102336.72;1032992;28;694;-71
2022/08/06 02:37:08;;;;;;;;;;;;;;;21.86;56.18;102334.81;1033316;28;736;-71
2022/08/06 02:37:58;;;;;;;;;;;;;;;21.86;56.25;102326.69;1032851;28;638;-71
2022/08/06 02:38:49;;;;;;;;;;;;;;;21.89;56.06;102332.69;1032303;28;774;-71
2022/08/06 02:39:39;;;;;;;;;;;;;;;21.86;56.09;102329.41;1033009;28;641;-71
2022/08/06 02:40:30;;;;;;;;;;;;;;;21.83;56.00;102334.13;1033543;28;720;-71
2022/08/06 02:41:20;;;;;;;;;;;;;;;21.83;56.03;102333.28;1032992;28;647;-71
2022/08/06 02:42:11;;;;;;;;;;;;;;;21.81;56.06;102336.13;1033679;28;677;-71
2022/08/06 02:43:01;;;;;;;;;;;;;;;21.83;56.18;102334.13;1033062;28;646;-71
2022/08/06 02:43:51;;;;;;;;;;;;;;;21.82;55.97;102340.56;1032968;28;1115;-71
2022/08/06 02:44:42;;;;;;;;;;;;;;;21.82;56.21;102334.25;1033521;28;689;-71
2022/08/06 02:45:33;;;;;;;;;;;;;;;21.80;55.99;102339.81;1033103;28;618;-71
2022/08/06 02:46:24;;;;;;;;;;;;;;;21.83;55.83;102331.41;1032449;28;610;-71
2022/08/06 02:47:15;;;;;;;;;;;;;;;21.80;56.18;102344.41;1032485;28;701;-71
2022/08/06 02:48:05;;;;;;;;;;;;;;;21.80;56.20;102331.69;1033154;28;749;-71
2022/08/06 02:48:56;;;;;;;;;;;;;;;21.80;56.01;102338.97;1033630;28;666;-71
2022/08/06 02:49:46;;;;;;;;;;;;;;;21.76;56.40;102330.22;1032547;28;662;-71
2022/08/06 02:50:36;;;;;;;;;;;;;;;21.75;56.14;102333.94;1032988;28;673;-71
2022/08/06 02:51:27;;;;;;;;;;;;;;;21.80;56.29;102339.81;1033551;28;717;-71
2022/08/06 02:52:17;;;;;;;;;;;;;;;21.82;56.13;102335.13;1033044;28;611;-71
2022/08/06 02:53:08;;;;;;;;;;;;;;;21.80;56.14;102345.25;1033022;28;705;-71
2022/08/06 02:53:58;;;;;;;;;;;;;;;21.81;56.13;102340.69;1033070;28;694;-71
2022/08/06 02:54:49;;;;;;;;;;;;;;;21.82;56.30;102336.97;1032979;28;678;-71
2022/08/06 02:55:39;;;;;;;;;;;;;;;21.79;55.98;102335.38;1032395;28;603;-71
2022/08/06 02:56:30;;;;;;;;;;;;;;;21.79;56.00;102335.38;1033277;28;685;-70
2022/08/06 02:57:21;;;;;;;;;;;;;;;21.76;56.25;102343.81;1032813;28;669;-70
2022/08/06 02:58:12;;;;;;;;;;;;;;;21.78;56.10;102339.09;1030485;28;1432;-70
2022/08/06 02:59:02;;;;;;;;;;;;;;;21.81;56.08;102337.97;1028393;28;1229;-70
2022/08/06 02:59:52;;;;;;;;;;;;;;;21.81;56.14;102335.25;1028193;28;1396;-70
2022/08/06 03:00:43;;;;;;;;;;;;;;;21.80;56.06;102339.81;1033045;28;670;-70
2022/08/06 03:01:33;;;;;;;;;;;;;;;21.77;56.21;102340.09;1033007;28;663;-71
2022/08/06 03:02:24;;;;;;;;;;;;;;;21.76;56.37;102338.38;1032986;28;650;-70
2022/08/06 03:03:14;;;;;;;;;;;;;;;21.77;56.21;102339.22;1032969;28;677;-70
2022/08/06 03:04:04;;;;;;;;;;;;;;;21.79;56.29;102345.38;1033034;28;685;-70
2022/08/06 03:04:55;;;;;;;;;;;;;;;21.79;56.22;102338.09;1033014;28;669;-70
2022/08/06 03:05:45;;;;;;;;;;;;;;;21.79;56.11;102346.25;1033013;28;622;-70
2022/08/06 03:06:36;;;;;;;;;;;;;;;21.81;56.31;102338.84;1033027;28;622;-70
2022/08/06 03:07:27;;;;;;;;;;;;;;;21.80;56.17;102339.81;1032905;28;702;-70
2022/08/06 03:08:18;;;;;;;;;;;;;;;21.80;56.26;102345.25;1032501;28;710;-70
2022/08/06 03:09:08;;;;;;;;;;;;;;;21.81;56.00;102343.41;1033562;28;646;-72
2022/08/06 03:09:58;;;;;;;;;;;;;;;21.78;56.03;102340.97;1032999;28;651;-71
2022/08/06 03:10:49;;;;;;;;;;;;;;;21.78;56.30;102346.38;1033268;28;724;-71
2022/08/06 03:11:40;;;;;;;;;;;;;;;21.77;56.24;102345.53;1033217;28;706;-70
2022/08/06 03:12:30;;;;;;;;;;;;;;;21.76;56.24;102343.81;1033260;28;639;-71
2022/08/06 03:13:21;;;;;;;;;;;;;;;21.76;56.42;102337.50;1033867;28;671;-70
2022/08/06 03:14:11;;;;;;;;;;;;;;;21.79;56.22;102337.25;1033851;28;627;-72
2022/08/06 03:15:02;;;;;;;;;;;;;;;21.76;56.20;102337.50;1034341;28;642;-71
2022/08/06 03:15:53;;;;;;;;;;;;;;;21.75;56.36;102336.66;1034318;28;694;-71
2022/08/06 03:16:43;;;;;;;;;;;;;;;21.75;56.33;102336.66;1033789;28;670;-71
2022/08/06 03:17:33;;;;;;;;;;;;;;;21.76;56.29;102343.81;1033822;28;702;-71
2022/08/06 03:18:24;;;;;;;;;;;;;;;21.77;56.24;102341.94;1029316;28;662;-71
2022/08/06 03:19:14;;;;;;;;;;;;;;;21.74;56.23;102344.94;1029781;28;623;-71
2022/08/06 03:20:05;;;;;;;;;;;;;;;21.77;56.28;102356.38;1029808;28;634;-70
2022/08/06 03:20:55;;;;;;;;;;;;;;;21.75;56.24;102347.50;1029776;28;635;-70
2022/08/06 03:21:46;;;;;;;;;;;;;;;21.77;56.37;102350.94;1029776;28;627;-71
2022/08/06 03:22:36;;;;;;;;;;;;;;;21.78;56.09;102349.09;1029362;28;638;-70
2022/08/06 03:23:26;;;;;;;;;;;;;;;21.77;56.09;102350.94;1027429;28;624;-71
2022/08/06 03:24:17;;;;;;;;;;;;;;;21.75;56.24;102346.66;1030272;28;642;-71
2022/08/06 03:25:07;;;;;;;;;;;;;;;21.71;56.22;102351.47;1029889;28;614;-71
2022/08/06 03:25:58;;;;;;;;;;;;;;;21.73;56.00;102351.34;1027578;28;613;-71
2022/08/06 03:26:48;;;;;;;;;;;;;;;21.73;56.25;102352.22;1027406;28;694;-71
2022/08/06 03:27:39;;;;;;;;;;;;;;;21.76;56.35;102356.50;1029753;28;631;-71
2022/08/06 03:28:29;;;;;;;;;;;;;;;21.76;55.88;102356.50;1027885;28;711;-71
2022/08/06 03:29:19;;;;;;;;;;;;;;;21.76;56.11;102353.78;1029639;28;690;-71
2022/08/06 03:30:10;;;;;;;;;;;;;;;21.76;56.30;102353.78;1029710;28;725;-71
2022/08/06 03:31:00;;;;;;;;;;;;;;;21.74;56.36;102351.22;1028561;28;706;-71
2022/08/06 03:31:51;;;;;;;;;;;;;;;21.74;56.29;102355.78;1029827;28;690;-71
2022/08/06 03:32:41;;;;;;;;;;;;;;;21.74;56.09;102358.50;1029746;28;705;-70
2022/08/06 03:33:31;;;;;;;;;;;;;;;21.74;56.26;102350.34;1029748;28;651;-70
2022/08/06 03:34:22;;;;;;;;;;;;;;;21.74;56.03;102358.50;1029597;28;1972;-70
2022/08/06 03:35:12;;;;;;;;;;;;;;;21.75;56.19;102357.50;1027727;28;639;-70
2022/08/06 03:36:03;;;;;;;;;;;;;;;21.75;56.17;102355.66;1029534;28;790;-70
2022/08/06 03:36:54;;;;;;;;;;;;;;;21.75;56.31;102352.94;1028770;28;655;-70
2022/08/06 03:37:44;;;;;;;;;;;;;;;21.73;56.43;102354.91;1032508;28;1452;-70
2022/08/06 03:38:35;;;;;;;;;;;;;;;21.73;56.21;102362.19;1033631;28;662;-70
2022/08/06 03:39:25;;;;;;;;;;;;;;;21.74;56.25;102356.63;1034040;28;1396;-70
2022/08/06 03:40:15;;;;;;;;;;;;;;;21.73;56.16;102359.50;1034356;28;666;-69
2022/08/06 03:41:06;;;;;;;;;;;;;;;21.73;56.16;102365.78;1033775;28;803;-70
2022/08/06 03:41:56;;;;;;;;;;;;;;;21.73;56.37;102363.06;1033711;28;654;-70
2022/08/06 03:42:47;;;;;;;;;;;;;;;21.72;56.26;102353.19;1033935;28;634;-69
2022/08/06 03:43:37;;;;;;;;;;;;;;;21.72;56.35;102363.19;1033435;28;698;-69
2022/08/06 03:44:27;;;;;;;;;;;;;;;21.72;56.50;102361.34;1033155;28;1336;-70
2022/08/06 03:45:18;;;;;;;;;;;;;;;21.73;56.43;102368.50;1033691;28;717;-69
2022/08/06 03:46:08;;;;;;;;;;;;;;;21.74;56.27;102361.22;1033724;28;768;-69
2022/08/06 03:46:59;;;;;;;;;;;;;;;21.72;56.13;102364.06;1033661;28;718;-70
2022/08/06 03:47:49;;;;;;;;;;;;;;;21.72;56.22;102363.19;1034371;28;728;-69
2022/08/06 03:48:40;;;;;;;;;;;;;;;21.72;56.30;102357.75;1034232;28;650;-70
2022/08/06 03:49:30;;;;;;;;;;;;;;;21.70;56.40;102360.63;1033774;28;643;-70
2022/08/06 03:50:20;;;;;;;;;;;;;;;21.71;56.38;102356.91;1033712;28;701;-70
2022/08/06 03:51:11;;;;;;;;;;;;;;;21.71;56.44;102356.91;1033714;28;765;-69
2022/08/06 03:52:01;;;;;;;;;;;;;;;21.70;56.35;102360.63;1033768;28;686;-69
2022/08/06 03:52:52;;;;;;;;;;;;;;;21.71;56.20;102362.34;1033739;28;655;-69
2022/08/06 03:53:42;;;;;;;;;;;;;;;21.71;56.26;102362.34;1033665;28;654;-69
2022/08/06 03:54:33;;;;;;;;;;;;;;;21.70;56.21;102360.63;1033673;28;1919;-69
2022/08/06 03:55:26;;;;;;;;;;;;;;;21.71;56.37;102361.47;1033683;28;639;-69
2022/08/06 03:56:16;;;;;;;;;;;;;;;21.70;56.26;102360.63;1033202;28;601;-69
2022/08/06 03:57:07;;;;;;;;;;;;;;;21.71;56.33;102366.91;1033456;28;1435;-69
2022/08/06 03:57:57;;;;;;;;;;;;;;;21.68;56.29;102365.31;1026394;28;661;-70
2022/08/06 03:58:48;;;;;;;;;;;;;;;21.70;56.27;102376.03;1025162;28;1218;-70
2022/08/06 03:59:38;;;;;;;;;;;;;;;21.70;55.99;102365.19;1027808;28;648;-69
2022/08/06 04:00:29;;;;;;;;;;;;;;;21.71;56.11;102370.47;1029736;28;690;-70
2022/08/06 04:01:19;;;;;;;;;;;;;;;21.72;56.14;102371.34;1028633;28;659;-70
2022/08/06 04:02:10;;;;;;;;;;;;;;;21.70;56.01;102374.19;1028502;28;687;-70
2022/08/06 04:03:02;;;;;;;;;;;;;;;21.71;55.92;102367.75;1028066;28;753;-70
2022/08/06 04:03:53;;;;;;;;;;;;;;;21.70;56.24;102376.91;1029121;28;698;-69
2022/08/06 04:04:43;;;;;;;;;;;;;;;21.67;56.21;102377.19;1028115;28;655;-70
2022/08/06 04:05:34;;;;;;;;;;;;;;;21.68;56.13;102373.44;1029281;28;634;-70
2022/08/06 04:06:24;;;;;;;;;;;;;;;21.66;56.18;102372.75;1029575;28;650;-70
2022/08/06 04:07:15;;;;;;;;;;;;;;;21.64;56.25;102369.31;1028503;28;643;-70
2022/08/06 04:08:05;;;;;;;;;;;;;;;21.63;56.44;102374.88;1028285;28;721;-70
2022/08/06 04:08:56;;;;;;;;;;;;;;;21.64;56.28;102377.47;1029343;28;651;-70
2022/08/06 04:09:46;;;;;;;;;;;;;;;21.65;56.45;102373.75;1028073;28;718;-70
2022/08/06 04:10:37;;;;;;;;;;;;;;;21.65;56.35;102381.03;1028468;28;635;-70
2022/08/06 04:11:27;;;;;;;;;;;;;;;21.65;56.43;102381.03;1028649;28;670;-70
2022/08/06 04:12:17;;;;;;;;;;;;;;;21.63;56.38;102374.88;1028364;28;692;-70
2022/08/06 04:13:08;;;;;;;;;;;;;;;21.67;56.18;102385.34;1028512;28;753;-71
2022/08/06 04:13:59;;;;;;;;;;;;;;;21.66;56.27;102386.31;1028132;28;706;-70
2022/08/06 04:14:49;;;;;;;;;;;;;;;21.66;56.21;102380.91;1029078;28;1963;-70
2022/08/06 04:15:39;;;;;;;;;;;;;;;21.66;56.25;102385.47;1028439;28;638;-70
2022/08/06 04:16:30;;;;;;;;;;;;;;;21.66;56.25;102380.91;1028540;28;730;-70
2022/08/06 04:17:20;;;;;;;;;;;;;;;21.64;56.29;102382.88;1028372;28;1329;-70
2022/08/06 04:18:11;;;;;;;;;;;;;;;21.65;56.32;102381.88;1029241;28;658;-70
2022/08/06 04:19:01;;;;;;;;;;;;;;;21.66;56.27;102389.03;1030954;28;1412;-69
2022/08/06 04:19:52;;;;;;;;;;;;;;;21.66;56.17;102385.47;1033103;28;717;-68
2022/08/06 04:20:42;;;;;;;;;;;;;;;21.63;56.45;102383.88;1027490;28;1244;-68
2022/08/06 04:21:32;;;;;;;;;;;;;;;21.63;56.28;102386.59;1028285;28;1221;-69
2022/08/06 04:22:23;;;;;;;;;;;;;;;21.63;56.27;102378.44;1028140;28;1384;-70
2022/08/06 04:23:14;;;;;;;;;;;;;;;21.63;56.40;102380.28;1027585;28;1256;-69
2022/08/06 04:24:04;;;;;;;;;;;;;;;21.62;56.52;102386.72;1028722;28;1258;-69
2022/08/06 04:24:54;;;;;;;;;;;;;;;21.65;56.24;102389.16;1030533;28;1270;-69
2022/08/06 04:25:45;;;;;;;;;;;;;;;21.63;56.36;102386.59;1029940;28;1200;-69
2022/08/06 04:26:35;;;;;;;;;;;;;;;21.65;56.24;102391.88;1028306;28;1224;-69